Terminal Aerodrome Forecast
Issued by NWS Boston, MA

Home | Current Version | Previous Version | Text Only | Print | Product List | Glossary On
Versions: 1 2 3 4 5 6 7 8 9 10 11 12 13 14 15 16 17 18 19 20 21 22 23 24 25 26 27 28 29 30 31
000
FTUS41 KBOX 182321
TAFBDL
TAF
KBDL 182321Z 1900/2006 VRB03KT P6SM FEW250
     FM191500 19010KT P6SM BKN200
     FM191800 19010KT P6SM VCSH BKN035
     FM192100 19008KT P6SM -SHRA BKN025
     FM200100 19007KT 3SM BR VCSH OVC015=

USA.gov is the U.S. government's official web portal to all federal, state and local government web resources and services.